Aérodrome :
LOGIN :

S'inscrire | Disclaimer

   EN    FR    IT 

 










Légende :    VFR   VFR Marginal   IFR   IFR Intensif   IFR Très Intensif
Visi : 
Plafond : 
>= 8 km
>= 3000ft
5 à 8 km
1000 à 3000 ft
1500m à 5 km
500 à 1000 ft
800 à 1500m
200 à 500 ft
< 800m
< 200 ft
Symboles :   Orages  Brouillard  Fortes neiges  Fortes précipitations  Vent > 20 kt
SIGMETs :   Divers  Orages  Givrage  Turbulence  Onde Orograph.  Cendres Volcan.






- Altitude de l'aérodrome : 400 ft
- Code IATA : BNX


LQBK - Banja Luka

DERNIER METAR :
  • 152030Z 05004KT CAVOK 11/09 Q1014 NOSIG

METARs EXPIRÉS :
  • 152000Z 16004KT CAVOK 11/09 Q1014 NOSIG
  • 151930Z 15002KT CAVOK 12/10 Q1014 NOSIG
  • 151900Z 15002KT CAVOK 11/09 Q1014 NOSIG
  • 151830Z 18002KT CAVOK 12/09 Q1014 NOSIG

TAF TAF LQBK
Valide du 15 à 18h jusqu'au 16 à 18h UTC


151700Z 1518/1618 18005KT CAVOK TX24/1612Z TN10/1605Z
PROB30
TEMPO 1615/1618 SHRA FEW035TCU BKN040



MET'MAP, la Météo Aéronautique d'un coup d'oeil ! - Copyright ORBIFLY Décembre 2007 - Disclaimer

ORBIFLY MET'MAP TEAM :

Programmation & Développement : Alexandra Zaïnal
Conception & Développement : Baudouin d'Aumeries
Co-Programmation & Développement : Marc-Olivier Méhu
Soutien technique & logistique : Manuel Goepfert

Contact : metmap@orbifly.com




SOURCES & CREDITS :

   NOAA